Time;durP1;ratioP1;P1;durP2;ratioP2;P2;SDS_P1;SDS_P2;PMS_P1;PMS_P2;Temp;Humidity;BMP_temperature;BMP_pressure;BME280_temperature;BME280_humidity;BME280_pressure;Samples;Min_cycle;Max_cycle;Signal;HPM_P1;HPM_P2
2023/06/19 00:01:15;;;;;;;10.95;9.02;;;21.00;99.90;;;;;;6301151;22;20103;-79
2023/06/19 00:03:41;;;;;;;11.25;8.82;;;21.00;99.90;;;;;;6249278;22;20016;-79
2023/06/19 00:06:07;;;;;;;11.88;8.43;;;21.00;99.90;;;;;;6249247;22;20571;-79
2023/06/19 00:08:32;;;;;;;11.48;8.93;;;20.90;99.90;;;;;;6249180;22;20057;-79
2023/06/19 00:10:58;;;;;;;12.52;8.35;;;20.90;99.90;;;;;;6274586;22;20012;-79
2023/06/19 00:13:23;;;;;;;11.77;8.27;;;20.90;99.90;;;;;;6300083;22;20464;-78
2023/06/19 00:15:49;;;;;;;10.82;8.48;;;20.90;99.90;;;;;;6300965;22;20004;-80
2023/06/19 00:18:16;;;;;;;11.52;8.90;;;20.90;99.90;;;;;;6249031;22;20438;-80
2023/06/19 00:20:45;;;;;;;11.23;8.57;;;20.90;99.90;;;;;;6300790;22;20449;-80
2023/06/19 00:23:13;;;;;;;11.68;8.57;;;20.90;99.90;;;;;;6300385;22;20518;-79
2023/06/19 00:25:40;;;;;;;10.15;8.50;;;20.80;99.90;;;;;;6249507;22;20015;-79
2023/06/19 00:28:13;;;;;;;10.02;8.02;;;20.80;99.90;;;;;;6249038;22;20086;-78
2023/06/19 00:30:39;;;;;;;10.23;8.48;;;20.80;99.90;;;;;;6275033;22;20016;-79
2023/06/19 00:33:05;;;;;;;10.82;8.90;;;20.80;99.90;;;;;;6272428;22;20394;-79
2023/06/19 00:35:30;;;;;;;11.40;8.07;;;20.90;99.90;;;;;;6326847;22;20087;-79
2023/06/19 00:37:56;;;;;;;10.05;8.10;;;20.80;99.90;;;;;;6325366;22;20095;-80
2023/06/19 00:40:28;;;;;;;12.93;8.23;;;20.80;99.90;;;;;;6248257;22;20019;-80
2023/06/19 00:42:54;;;;;;;10.05;7.18;;;20.80;99.90;;;;;;6275859;22;20016;-78
2023/06/19 00:45:20;;;;;;;9.45;7.68;;;20.80;99.90;;;;;;6248327;22;20023;-78
2023/06/19 00:47:46;;;;;;;10.95;8.05;;;20.70;99.90;;;;;;6275786;22;20012;-81
2023/06/19 00:50:12;;;;;;;11.68;7.85;;;20.80;99.90;;;;;;6250753;22;20142;-80
2023/06/19 00:52:38;;;;;;;11.82;7.85;;;20.80;99.90;;;;;;6276408;22;20011;-79
2023/06/19 00:55:06;;;;;;;11.18;7.55;;;20.90;99.90;;;;;;6277172;22;20034;-78
2023/06/19 00:57:32;;;;;;;11.43;8.15;;;20.90;99.90;;;;;;6275875;22;20046;-76
2023/06/19 00:59:58;;;;;;;12.43;8.13;;;20.90;99.90;;;;;;6328880;22;20012;-79
2023/06/19 01:02:25;;;;;;;10.43;7.78;;;20.80;99.90;;;;;;6250051;22;20012;-79
2023/06/19 01:04:53;;;;;;;10.80;7.70;;;20.90;99.90;;;;;;6249487;22;20012;-78
2023/06/19 01:07:49;;;;;;;10.35;8.25;;;20.90;99.90;;;;;;6301916;22;20007;-78
2023/06/19 01:10:27;;;;;;;11.07;7.97;;;20.80;99.90;;;;;;6249793;22;20015;-79
2023/06/19 01:13:01;;;;;;;11.10;7.82;;;20.80;99.90;;;;;;6250807;22;20472;-80
2023/06/19 01:15:27;;;;;;;10.98;7.70;;;20.90;99.90;;;;;;6250146;22;20008;-79
2023/06/19 01:17:56;;;;;;;9.90;8.10;;;20.80;99.90;;;;;;6251011;22;20012;-79
2023/06/19 01:20:21;;;;;;;10.70;7.50;;;20.80;99.90;;;;;;6250546;22;20012;-79
2023/06/19 01:22:47;;;;;;;11.02;7.10;;;20.90;99.90;;;;;;6328094;22;20046;-79
2023/06/19 01:25:13;;;;;;;11.45;8.20;;;20.80;99.90;;;;;;6250031;22;20008;-79
2023/06/19 01:27:41;;;;;;;11.18;7.80;;;20.80;99.90;;;;;;6251041;22;20022;-79
2023/06/19 01:30:09;;;;;;;11.02;7.75;;;20.80;99.90;;;;;;6250535;22;20017;-79
2023/06/19 01:32:49;;;;;;;11.70;7.20;;;20.80;99.90;;;;;;6250582;22;20007;-79
2023/06/19 01:35:19;;;;;;;11.75;7.57;;;20.80;99.90;;;;;;6327510;22;20457;-79
2023/06/19 01:37:46;;;;;;;9.82;7.72;;;20.90;99.90;;;;;;6251037;22;20008;-80
2023/06/19 01:40:13;;;;;;;11.93;6.82;;;20.90;99.90;;;;;;6276486;22;20034;-80
2023/06/19 01:42:40;;;;;;;9.93;7.57;;;20.80;99.90;;;;;;6248894;22;20342;-79
2023/06/19 01:45:07;;;;;;;10.68;7.88;;;20.90;99.90;;;;;;6276049;22;20015;-79
2023/06/19 01:47:32;;;;;;;9.55;7.22;;;20.80;99.90;;;;;;6250199;22;20037;-79
2023/06/19 01:49:58;;;;;;;10.77;7.57;;;20.90;99.90;;;;;;6301844;22;20441;-79
2023/06/19 01:52:25;;;;;;;10.85;7.57;;;20.80;99.90;;;;;;6301657;22;20008;-80
2023/06/19 01:54:51;;;;;;;12.23;8.07;;;20.90;99.90;;;;;;6300540;22;20008;-79
2023/06/19 01:57:16;;;;;;;10.23;7.93;;;20.90;99.90;;;;;;6249304;22;20386;-79
2023/06/19 01:59:42;;;;;;;10.32;7.25;;;20.90;99.90;;;;;;6327276;22;20019;-79
2023/06/19 02:02:08;;;;;;;10.75;7.70;;;20.90;99.90;;;;;;6301506;22;20015;-79
2023/06/19 02:04:33;;;;;;;12.10;7.80;;;20.80;99.90;;;;;;6275271;22;20012;-78
2023/06/19 02:06:59;;;;;;;11.02;7.75;;;20.90;99.90;;;;;;6250237;22;20011;-79
2023/06/19 02:09:24;;;;;;;10.85;7.78;;;20.90;99.90;;;;;;6275869;22;20007;-79
2023/06/19 02:11:50;;;;;;;11.88;7.43;;;20.90;99.90;;;;;;6250656;22;20008;-80
2023/06/19 02:14:16;;;;;;;10.25;7.38;;;20.90;99.90;;;;;;6275427;22;20007;-79
2023/06/19 02:16:43;;;;;;;10.73;7.60;;;20.90;99.90;;;;;;6250333;22;20008;-79
2023/06/19 02:19:11;;;;;;;9.25;7.03;;;21.00;99.90;;;;;;6274830;22;20008;-79
2023/06/19 02:21:38;;;;;;;10.32;7.43;;;20.90;99.90;;;;;;6327951;22;20129;-78
2023/06/19 02:24:04;;;;;;;10.90;7.28;;;20.90;99.90;;;;;;6275103;22;20018;-80
2023/06/19 02:26:29;;;;;;;10.05;7.78;;;21.00;99.90;;;;;;6275331;22;20023;-79
2023/06/19 02:28:58;;;;;;;11.48;7.55;;;21.00;99.90;;;;;;6249881;22;20015;-79
2023/06/19 02:31:23;;;;;;;11.10;7.38;;;20.90;99.90;;;;;;6249841;22;20016;-79
2023/06/19 02:33:49;;;;;;;11.68;7.78;;;21.00;99.90;;;;;;6301009;22;20087;-79
2023/06/19 02:36:21;;;;;;;12.15;8.45;;;21.00;99.90;;;;;;6249223;22;20011;-79
2023/06/19 02:38:47;;;;;;;;;;;21.00;99.90;;;;;;6275556;22;20356;-79
2023/06/19 02:41:13;;;;;;;10.30;7.75;;;20.90;99.90;;;;;;6249905;22;19917;-79
2023/06/19 02:43:40;;;;;;;13.02;7.75;;;20.90;99.90;;;;;;6250050;22;20012;-80
2023/06/19 02:46:06;;;;;;;9.75;7.30;;;20.90;99.90;;;;;;6249225;22;20018;-80
2023/06/19 02:48:31;;;;;;;12.70;8.13;;;21.00;99.90;;;;;;6327233;22;20007;-79
2023/06/19 02:50:57;;;;;;;10.23;7.85;;;21.10;99.90;;;;;;6300415;22;20015;-78
2023/06/19 02:53:23;;;;;;;10.85;7.13;;;21.20;99.90;;;;;;6301537;22;20062;-80
2023/06/19 02:55:48;;;;;;;11.07;7.40;;;21.20;99.90;;;;;;6248743;22;20449;-80
2023/06/19 02:58:14;;;;;;;9.98;7.93;;;21.10;99.90;;;;;;6327602;22;20027;-80
2023/06/19 03:00:39;;;;;;;10.18;7.70;;;21.30;99.90;;;;;;6250134;22;20039;-80
2023/06/19 03:03:05;;;;;;;9.60;7.38;;;21.10;99.90;;;;;;6300937;22;20031;-80
2023/06/19 03:05:31;;;;;;;10.82;7.70;;;21.10;99.90;;;;;;6249035;22;20098;-79
2023/06/19 03:07:56;;;;;;;11.90;7.50;;;21.00;99.90;;;;;;6275766;22;20020;-80
2023/06/19 03:10:22;;;;;;;10.52;7.88;;;21.00;99.90;;;;;;6301261;22;20051;-80
2023/06/19 03:12:48;;;;;;;10.18;7.80;;;21.00;99.90;;;;;;6301281;22;20345;-79
2023/06/19 03:15:13;;;;;;;11.30;7.72;;;21.10;99.90;;;;;;6274762;22;20011;-79
2023/06/19 03:17:39;;;;;;;9.88;7.97;;;21.10;99.90;;;;;;6250383;22;20445;-79
2023/06/19 03:20:06;;;;;;;9.38;7.20;;;21.00;99.90;;;;;;6249389;22;20018;-80
2023/06/19 03:22:31;;;;;;;10.38;7.22;;;21.00;99.90;;;;;;6250237;22;20054;-80
2023/06/19 03:24:57;;;;;;;12.68;7.82;;;21.00;99.90;;;;;;6274495;22;20016;-80
2023/06/19 03:27:26;;;;;;;10.45;7.85;;;21.00;99.90;;;;;;6249808;22;20018;-80
2023/06/19 03:29:52;;;;;;;10.27;7.65;;;21.00;99.90;;;;;;6300516;22;20008;-80
2023/06/19 03:32:19;;;;;;;10.70;7.40;;;21.00;99.90;;;;;;6274971;22;20050;-80
2023/06/19 03:34:45;;;;;;;9.63;7.55;;;21.00;99.90;;;;;;6300330;22;20015;-80
2023/06/19 03:37:12;;;;;;;9.38;7.20;;;21.00;99.90;;;;;;6275151;22;20015;-80
2023/06/19 03:39:38;;;;;;;10.70;7.80;;;21.10;99.90;;;;;;6300752;22;20008;-80
2023/06/19 03:42:04;;;;;;;10.13;7.18;;;21.10;99.90;;;;;;6274633;22;20350;-80
2023/06/19 03:44:29;;;;;;;12.43;7.28;;;21.10;99.90;;;;;;6248821;22;20070;-80
2023/06/19 03:46:55;;;;;;;9.73;6.93;;;21.20;99.90;;;;;;6275020;22;20450;-80
2023/06/19 03:49:20;;;;;;;9.88;7.18;;;21.20;99.90;;;;;;6274830;22;20088;-80
2023/06/19 03:51:46;;;;;;;9.18;6.97;;;21.20;99.90;;;;;;6327104;22;20016;-80
2023/06/19 03:54:11;;;;;;;9.88;7.30;;;21.30;99.90;;;;;;6274243;22;20008;-80
2023/06/19 03:56:38;;;;;;;10.35;6.85;;;21.30;99.90;;;;;;6326086;22;20062;-80
2023/06/19 03:59:03;;;;;;;10.95;6.90;;;21.30;99.90;;;;;;6275358;22;20386;-80
2023/06/19 04:01:29;;;;;;;8.90;5.90;;;21.20;99.90;;;;;;6249132;22;20054;-79
2023/06/19 04:03:59;;;;;;;9.23;5.90;;;21.30;99.90;;;;;;6326157;22;20396;-80
2023/06/19 04:06:42;;;;;;;10.23;5.88;;;21.40;99.90;;;;;;6273794;22;20020;-80
2023/06/19 04:09:18;;;;;;;10.35;4.70;;;21.30;99.90;;;;;;6274716;22;20023;-80
2023/06/19 04:11:43;;;;;;;8.60;5.28;;;21.30;99.90;;;;;;6274129;22;20350;-81
2023/06/19 04:14:09;;;;;;;7.30;4.72;;;21.30;99.90;;;;;;6247913;22;20054;-80
2023/06/19 04:16:35;;;;;;;8.05;4.50;;;21.40;99.90;;;;;;6274379;22;20438;-80
2023/06/19 04:19:00;;;;;;;7.90;4.43;;;21.40;99.90;;;;;;6249045;22;20023;-80
2023/06/19 04:21:26;;;;;;;7.80;4.60;;;21.30;99.90;;;;;;6249254;22;20505;-81
2023/06/19 04:23:51;;;;;;;7.47;4.38;;;21.30;99.90;;;;;;6248638;22;20446;-80
2023/06/19 04:26:18;;;;;;;7.57;4.38;;;21.30;99.90;;;;;;6300230;22;20091;-80
2023/06/19 04:28:43;;;;;;;7.05;4.40;;;21.20;99.90;;;;;;6275041;22;20061;-80
2023/06/19 04:31:09;;;;;;;7.72;4.25;;;21.20;99.90;;;;;;6248370;22;20016;-80
2023/06/19 04:33:34;;;;;;;7.78;4.30;;;21.20;99.90;;;;;;6248852;22;20012;-80
2023/06/19 04:36:00;;;;;;;7.10;4.40;;;21.10;99.90;;;;;;6249120;22;20011;-80
2023/06/19 04:38:26;;;;;;;9.02;4.97;;;21.10;99.90;;;;;;6248554;22;20034;-80
2023/06/19 04:40:52;;;;;;;7.68;4.72;;;21.20;99.90;;;;;;6300928;22;20473;-80
2023/06/19 04:43:17;;;;;;;7.13;4.38;;;21.10;99.90;;;;;;6248685;22;20039;-80
2023/06/19 04:45:43;;;;;;;9.75;4.85;;;21.00;99.90;;;;;;6299498;22;20319;-80
2023/06/19 04:48:09;;;;;;;7.75;4.40;;;21.00;99.90;;;;;;6274037;22;20054;-80
2023/06/19 04:50:35;;;;;;;8.02;4.70;;;21.10;99.90;;;;;;6299442;22;20012;-80
2023/06/19 04:53:00;;;;;;;8.02;4.45;;;21.20;99.90;;;;;;6300486;22;20342;-80
2023/06/19 04:55:26;;;;;;;8.25;4.30;;;21.10;99.90;;;;;;6247725;22;20512;-80
2023/06/19 04:57:52;;;;;;;7.55;4.40;;;21.10;99.90;;;;;;6300868;22;20008;-80
2023/06/19 05:00:23;;;;;;;7.85;4.20;;;21.10;99.90;;;;;;6274069;22;20066;-80
2023/06/19 05:02:49;;;;;;;8.60;4.10;;;21.00;99.90;;;;;;6249037;22;20091;-80
2023/06/19 05:05:15;;;;;;;7.95;4.78;;;21.00;99.90;;;;;;6248489;22;20035;-80
2023/06/19 05:07:41;;;;;;;8.95;4.35;;;21.00;99.90;;;;;;6249368;22;20015;-80
2023/06/19 05:10:07;;;;;;;9.23;4.40;;;21.00;99.90;;;;;;6326273;22;20069;-80
2023/06/19 05:12:34;;;;;;;7.40;4.88;;;21.10;99.90;;;;;;6248399;22;20019;-80
2023/06/19 05:15:00;;;;;;;6.93;4.00;;;21.10;99.90;;;;;;6275028;22;20018;-80
2023/06/19 05:17:25;;;;;;;10.57;4.50;;;21.10;99.90;;;;;;6272646;22;20011;-80
2023/06/19 05:19:51;;;;;;;6.85;3.92;;;21.20;99.90;;;;;;6326185;22;20091;-80
2023/06/19 05:22:18;;;;;;;9.15;3.97;;;21.00;99.90;;;;;;6325492;22;20226;-79
2023/06/19 05:24:44;;;;;;;7.35;3.90;;;21.10;99.90;;;;;;6249528;22;20465;-80
2023/06/19 05:27:10;;;;;;;6.75;4.20;;;21.20;99.90;;;;;;6248264;22;20019;-80
2023/06/19 05:29:36;;;;;;;7.45;4.20;;;21.20;99.90;;;;;;6300845;22;20012;-80
2023/06/19 05:32:02;;;;;;;6.63;3.75;;;21.20;99.90;;;;;;6250163;22;20011;-80
2023/06/19 05:34:28;;;;;;;6.53;3.70;;;21.20;99.90;;;;;;6302409;22;20066;-81
2023/06/19 05:36:53;;;;;;;8.65;4.03;;;21.30;99.90;;;;;;6301417;22;20012;-80
2023/06/19 05:39:19;;;;;;;8.27;4.13;;;21.20;99.90;;;;;;6250607;22;20011;-80
2023/06/19 05:41:45;;;;;;;6.82;4.35;;;21.20;99.90;;;;;;6276016;22;20446;-81
2023/06/19 05:44:15;;;;;;;9.20;4.45;;;21.20;99.90;;;;;;6275422;22;20056;-81
2023/06/19 05:46:41;;;;;;;7.85;4.82;;;21.20;99.90;;;;;;6301409;22;20011;-80
2023/06/19 05:49:06;;;;;;;7.80;4.47;;;21.20;99.90;;;;;;6275984;22;20023;-80
2023/06/19 05:51:32;;;;;;;8.77;5.28;;;21.30;99.90;;;;;;6250374;22;20012;-81
2023/06/19 05:54:03;;;;;;;9.15;5.13;;;21.20;99.90;;;;;;6327752;22;20079;-80
2023/06/19 05:56:29;;;;;;;8.13;5.13;;;21.10;99.90;;;;;;6250398;22;20461;-80
2023/06/19 05:58:54;;;;;;;8.27;4.72;;;21.10;99.90;;;;;;6275527;22;20392;-80
2023/06/19 06:01:20;;;;;;;7.95;4.40;;;21.00;99.90;;;;;;6326006;22;20015;-81
2023/06/19 06:03:46;;;;;;;7.35;4.82;;;21.20;99.90;;;;;;6328337;22;20408;-80
2023/06/19 06:06:11;;;;;;;7.95;4.97;;;21.20;99.90;;;;;;6275744;22;20039;-80
2023/06/19 06:08:37;;;;;;;9.98;5.90;;;21.20;99.90;;;;;;6273982;22;20042;-81
2023/06/19 06:11:02;;;;;;;9.70;5.75;;;21.10;99.90;;;;;;6301714;22;20015;-80
2023/06/19 06:13:28;;;;;;;8.98;5.20;;;21.10;99.90;;;;;;6325681;22;20012;-80
2023/06/19 06:15:53;;;;;;;8.73;5.25;;;21.10;99.90;;;;;;6327052;22;20010;-80
2023/06/19 06:18:19;;;;;;;7.90;4.95;;;21.10;99.90;;;;;;6275626;22;20107;-80
2023/06/19 06:20:45;;;;;;;7.80;4.75;;;21.20;99.90;;;;;;6301931;22;20077;-80
2023/06/19 06:23:11;;;;;;;9.32;5.68;;;21.20;99.90;;;;;;6248381;22;20008;-80
2023/06/19 06:25:36;;;;;;;7.82;4.80;;;21.20;99.90;;;;;;6301123;22;20098;-80
2023/06/19 06:28:02;;;;;;;7.07;4.85;;;21.20;99.90;;;;;;6238050;22;20063;-80
2023/06/19 06:30:28;;;;;;;7.68;4.70;;;21.20;99.90;;;;;;6271950;22;20015;-80
2023/06/19 06:32:53;;;;;;;6.85;4.70;;;21.20;99.90;;;;;;6249586;22;20077;-80
2023/06/19 06:35:19;;;;;;;6.32;4.13;;;21.20;99.90;;;;;;6319892;22;20445;-80
2023/06/19 06:37:46;;;;;;;7.03;4.90;;;21.20;99.90;;;;;;6243270;22;20012;-80
2023/06/19 06:40:12;;;;;;;8.05;5.10;;;21.20;99.90;;;;;;6241594;22;20026;-80
2023/06/19 06:42:38;;;;;;;7.78;4.53;;;21.10;99.90;;;;;;6241675;22;20462;-81
2023/06/19 06:45:07;;;;;;;9.77;4.82;;;21.10;99.90;;;;;;6267724;22;20022;-80
2023/06/19 06:47:34;;;;;;;7.00;4.20;;;21.10;99.90;;;;;;6267633;22;20012;-80
2023/06/19 06:50:00;;;;;;;6.43;4.40;;;21.10;99.90;;;;;;6241235;22;20020;-77
2023/06/19 06:52:27;;;;;;;8.00;4.45;;;21.00;99.90;;;;;;6320157;22;20011;-80
2023/06/19 06:54:53;;;;;;;7.63;5.00;;;21.20;99.90;;;;;;6296416;22;20484;-80
2023/06/19 06:57:19;;;;;;;9.10;5.40;;;21.10;99.90;;;;;;6242528;22;20338;-80
2023/06/19 06:59:44;;;;;;;10.85;7.20;;;21.10;99.90;;;;;;6318210;22;20062;-80
2023/06/19 07:02:10;;;;;;;10.52;8.55;;;21.10;99.90;;;;;;6267802;22;20015;-80
2023/06/19 07:04:35;;;;;;;11.18;9.10;;;21.10;99.90;;;;;;6319183;22;20023;-80
2023/06/19 07:07:03;;;;;;;12.60;10.07;;;21.00;99.90;;;;;;6266525;22;20541;-80
2023/06/19 07:09:29;;;;;;;13.10;9.68;;;21.00;99.90;;;;;;6241180;22;20019;-80
2023/06/19 07:11:54;;;;;;;13.43;11.02;;;20.90;99.90;;;;;;6318929;22;20015;-80
2023/06/19 07:14:20;;;;;;;12.85;10.90;;;21.00;99.90;;;;;;6267324;22;20012;-81
2023/06/19 07:16:46;;;;;;;17.05;13.23;;;20.90;99.90;;;;;;6241956;22;20011;-80
2023/06/19 07:19:12;;;;;;;16.05;12.95;;;20.90;99.90;;;;;;6265769;22;20019;-80
2023/06/19 07:21:38;;;;;;;16.27;11.40;;;20.90;99.90;;;;;;6215840;22;20333;-81
2023/06/19 07:24:05;;;;;;;16.88;12.18;;;20.90;99.90;;;;;;6272835;22;20011;-80
2023/06/19 07:26:30;;;;;;;16.95;11.82;;;20.90;99.90;;;;;;6249533;22;20058;-80
2023/06/19 07:28:56;;;;;;;14.75;10.77;;;20.80;99.90;;;;;;6249102;22;20015;-81
2023/06/19 07:31:22;;;;;;;15.45;11.13;;;20.80;99.90;;;;;;6246977;22;20022;-80
2023/06/19 07:33:47;;;;;;;16.23;10.93;;;20.70;99.90;;;;;;6240821;22;20016;-80
2023/06/19 07:36:14;;;;;;;15.68;10.38;;;20.70;99.90;;;;;;6266855;22;20015;-83
2023/06/19 07:38:43;;;;;;;14.32;10.95;;;20.80;99.90;;;;;;6241490;22;20069;-77
2023/06/19 07:41:10;;;;;;;15.32;10.85;;;20.70;99.90;;;;;;6240309;22;20472;-80
2023/06/19 07:43:36;;;;;;;13.93;9.93;;;20.80;99.90;;;;;;6266328;22;20019;-80
2023/06/19 07:46:02;;;;;;;13.63;9.50;;;21.00;99.90;;;;;;6266590;22;20488;-80
2023/06/19 07:48:28;;;;;;;13.40;9.90;;;20.90;99.90;;;;;;6292280;22;20090;-80
2023/06/19 07:50:54;;;;;;;12.00;9.48;;;20.90;99.90;;;;;;6291725;22;20068;-80
2023/06/19 07:53:19;;;;;;;15.70;9.75;;;20.80;99.90;;;;;;6319572;22;20388;-80
2023/06/19 07:55:45;;;;;;;12.13;8.15;;;20.70;99.90;;;;;;6241911;22;20007;-80
2023/06/19 07:58:11;;;;;;;12.20;7.75;;;20.70;99.90;;;;;;6292502;22;20086;-80
2023/06/19 08:00:36;;;;;;;10.60;6.93;;;20.80;99.90;;;;;;6291888;22;20128;-80
2023/06/19 08:03:02;;;;;;;9.43;6.80;;;20.80;99.90;;;;;;6268725;22;20528;-80
2023/06/19 08:05:28;;;;;;;11.50;6.97;;;20.80;99.90;;;;;;6267536;22;20019;-80
2023/06/19 08:07:53;;;;;;;9.48;6.70;;;20.70;99.90;;;;;;6317563;22;20096;-79
2023/06/19 08:10:19;;;;;;;10.32;6.15;;;20.70;99.90;;;;;;6291491;22;20071;-79
2023/06/19 08:12:45;;;;;;;8.85;5.85;;;20.60;99.90;;;;;;6267383;22;20041;-80
2023/06/19 08:15:13;;;;;;;8.38;5.53;;;20.70;99.90;;;;;;6318346;22;20510;-80
2023/06/19 08:17:39;;;;;;;8.52;5.38;;;20.70;99.90;;;;;;6240924;22;20047;-79
2023/06/19 08:20:06;;;;;;;9.05;5.85;;;20.70;99.90;;;;;;6240934;22;20011;-80
2023/06/19 08:22:32;;;;;;;9.15;5.72;;;20.70;99.90;;;;;;6266614;22;20037;-79
2023/06/19 08:24:58;;;;;;;9.05;4.97;;;20.70;99.90;;;;;;6298037;22;20011;-79
2023/06/19 08:27:26;;;;;;;8.00;4.60;;;20.70;99.90;;;;;;6241361;22;20008;-79
2023/06/19 08:29:51;;;;;;;7.32;5.05;;;20.70;99.90;;;;;;6271395;22;20407;-80
2023/06/19 08:32:17;;;;;;;8.65;4.80;;;20.60;99.90;;;;;;6295693;22;20011;-80
2023/06/19 08:34:42;;;;;;;8.88;4.38;;;20.70;99.90;;;;;;6291888;22;20337;-79
2023/06/19 08:37:08;;;;;;;7.55;4.20;;;20.70;99.90;;;;;;6240453;22;20011;-79
2023/06/19 08:39:35;;;;;;;7.63;4.60;;;20.70;99.90;;;;;;6267620;22;20004;-80
2023/06/19 08:42:02;;;;;;;8.98;4.68;;;20.70;99.90;;;;;;6270060;22;20503;-80
2023/06/19 08:44:28;;;;;;;9.90;4.43;;;20.70;99.90;;;;;;6270130;22;20058;-80
2023/06/19 08:46:53;;;;;;;7.75;5.05;;;20.70;99.90;;;;;;6296338;22;20064;-78
2023/06/19 08:49:19;;;;;;;10.52;5.57;;;20.70;99.90;;;;;;6273843;22;20012;-80
2023/06/19 08:51:44;;;;;;;8.60;5.45;;;20.70;99.90;;;;;;6248337;22;20457;-80
2023/06/19 08:54:10;;;;;;;7.85;5.30;;;20.60;99.90;;;;;;6247607;22;20058;-79
2023/06/19 08:56:39;;;;;;;8.13;5.30;;;20.50;99.90;;;;;;6299979;22;20016;-79
2023/06/19 08:59:15;;;;;;;10.70;5.47;;;20.50;99.90;;;;;;6248333;22;20331;-80
2023/06/19 09:01:51;;;;;;;9.07;5.38;;;20.40;99.90;;;;;;6273370;22;20016;-80
2023/06/19 09:04:19;;;;;;;7.93;5.18;;;20.40;99.90;;;;;;6249681;22;20012;-80
2023/06/19 09:07:07;;;;;;;9.32;5.63;;;20.20;99.90;;;;;;6275973;22;20012;-80
2023/06/19 09:09:32;;;;;;;9.43;5.90;;;20.30;99.90;;;;;;6250076;22;20064;-80
2023/06/19 09:12:06;;;;;;;9.60;5.80;;;20.20;99.90;;;;;;6249466;22;20007;-80
2023/06/19 09:14:35;;;;;;;8.07;5.90;;;20.30;99.90;;;;;;6251110;22;20012;-80
2023/06/19 09:17:02;;;;;;;9.82;5.85;;;20.20;99.90;;;;;;6249087;22;20012;-80
2023/06/19 09:19:28;;;;;;;9.10;5.82;;;20.30;99.90;;;;;;6248635;22;20061;-80
2023/06/19 09:21:58;;;;;;;10.40;6.10;;;20.40;99.90;;;;;;6275519;22;20015;-80
2023/06/19 09:24:32;;;;;;;9.00;5.90;;;20.40;99.90;;;;;;6276093;22;20015;-79
2023/06/19 09:27:06;;;;;;;9.15;5.50;;;20.40;99.90;;;;;;6248839;22;20116;-79
2023/06/19 09:29:32;;;;;;;9.88;5.78;;;20.60;99.90;;;;;;6250619;22;20100;-80
2023/06/19 09:31:58;;;;;;;9.35;5.82;;;20.70;99.90;;;;;;6274696;22;20388;-79
2023/06/19 09:34:23;;;;;;;9.13;5.32;;;20.80;99.90;;;;;;6248781;22;20008;-79
2023/06/19 09:36:50;;;;;;;10.00;6.28;;;20.90;99.90;;;;;;6250391;22;20087;-80
2023/06/19 09:39:16;;;;;;;10.10;6.60;;;20.90;99.90;;;;;;6249820;22;20014;-80
2023/06/19 09:41:46;;;;;;;7.93;5.25;;;20.90;99.90;;;;;;6275321;22;20019;-80
2023/06/19 09:44:13;;;;;;;12.02;7.63;;;20.90;99.90;;;;;;6275344;22;20019;-80
2023/06/19 09:46:44;;;;;;;9.65;7.93;;;21.00;99.90;;;;;;6249823;22;20086;-79
2023/06/19 09:49:11;;;;;;;11.43;6.47;;;20.90;99.90;;;;;;6275171;22;20454;-80
2023/06/19 09:51:42;;;;;;;12.65;7.55;;;20.80;99.90;;;;;;6274552;22;20018;-79
2023/06/19 09:54:09;;;;;;;11.00;8.00;;;20.90;99.90;;;;;;6248606;22;20008;-79
2023/06/19 09:56:35;;;;;;;11.93;9.15;;;21.00;99.90;;;;;;6251010;22;20011;-79
2023/06/19 09:59:02;;;;;;;11.82;7.88;;;21.00;99.90;;;;;;6275771;22;20047;-80
2023/06/19 10:01:30;;;;;;;11.55;8.05;;;20.90;99.90;;;;;;6250120;22;20043;-80
2023/06/19 10:04:07;;;;;;;12.75;8.18;;;21.00;99.90;;;;;;6275667;22;20024;-80
2023/06/19 10:06:42;;;;;;;11.80;7.57;;;21.20;99.90;;;;;;6250322;22;20047;-80
2023/06/19 10:09:09;;;;;;;10.70;7.03;;;21.20;99.90;;;;;;6248943;22;20015;-78
2023/06/19 10:11:52;;;;;;;11.95;7.60;;;21.20;99.90;;;;;;6249600;22;20141;-79
2023/06/19 10:14:19;;;;;;;11.07;7.75;;;21.10;99.90;;;;;;6275201;22;20012;-80
2023/06/19 10:16:45;;;;;;;11.23;7.97;;;21.10;99.90;;;;;;6248307;22;20014;-80
2023/06/19 10:19:16;;;;;;;12.55;7.35;;;21.10;99.90;;;;;;6275115;22;20047;-80
2023/06/19 10:21:50;;;;;;;10.45;7.28;;;21.10;99.90;;;;;;6299918;22;20139;-79
2023/06/19 10:24:19;;;;;;;9.93;7.35;;;21.20;99.90;;;;;;6273630;22;20020;-79
2023/06/19 10:26:59;;;;;;;10.40;7.47;;;21.30;99.90;;;;;;6273906;22;20023;-79
2023/06/19 10:29:26;;;;;;;10.52;7.50;;;21.20;99.90;;;;;;6275335;22;20007;-79
2023/06/19 10:31:52;;;;;;;10.80;7.65;;;21.20;99.90;;;;;;6300677;22;20012;-79
2023/06/19 10:34:18;;;;;;;13.88;8.63;;;21.40;99.90;;;;;;6300062;22;20014;-79
2023/06/19 10:36:44;;;;;;;12.50;8.55;;;21.40;99.90;;;;;;6300937;22;20457;-80
2023/06/19 10:39:10;;;;;;;11.52;8.05;;;21.40;99.90;;;;;;6299667;22;20015;-79
2023/06/19 10:41:39;;;;;;;12.98;8.50;;;21.50;99.90;;;;;;6249784;22;20018;-80
2023/06/19 10:44:08;;;;;;;12.27;8.90;;;21.50;99.90;;;;;;6247907;22;20014;-79
2023/06/19 10:46:36;;;;;;;12.57;9.70;;;21.40;99.90;;;;;;6249664;22;20051;-80
2023/06/19 10:49:04;;;;;;;14.55;9.25;;;21.50;99.90;;;;;;6274956;22;20026;-80
2023/06/19 10:51:40;;;;;;;12.82;9.85;;;21.50;99.90;;;;;;6300862;22;20150;-79
2023/06/19 10:54:07;;;;;;;14.30;10.02;;;21.40;99.90;;;;;;6275012;22;20015;-80
2023/06/19 10:56:33;;;;;;;14.23;9.98;;;21.50;99.90;;;;;;6274805;22;20430;-80
2023/06/19 10:59:01;;;;;;;12.30;9.50;;;21.40;99.90;;;;;;6249368;22;20014;-80
2023/06/19 11:01:37;;;;;;;12.20;9.60;;;21.30;99.90;;;;;;6274239;22;20390;-80
2023/06/19 11:04:08;;;;;;;13.20;9.35;;;21.40;99.90;;;;;;6273635;22;20016;-80
2023/06/19 11:06:34;;;;;;;12.18;8.80;;;21.30;99.90;;;;;;6248805;22;20458;-80
2023/06/19 11:09:00;;;;;;;13.32;9.57;;;21.20;99.90;;;;;;6249252;22;20057;-80
2023/06/19 11:11:40;;;;;;;12.52;8.52;;;21.20;99.90;;;;;;6323829;22;20016;-80
2023/06/19 11:14:06;;;;;;;12.80;7.78;;;21.30;99.90;;;;;;6249174;22;20004;-80
2023/06/19 11:16:33;;;;;;;10.75;7.68;;;21.20;99.90;;;;;;6275565;22;20092;-80
2023/06/19 11:18:59;;;;;;;11.55;8.75;;;21.40;99.90;;;;;;6275664;22;20087;-80
2023/06/19 11:21:34;;;;;;;11.57;8.20;;;21.50;99.90;;;;;;6274846;22;20082;-80
2023/06/19 11:24:01;;;;;;;11.90;8.00;;;21.60;99.90;;;;;;6249589;22;20007;-80
2023/06/19 11:26:26;;;;;;;11.75;8.63;;;21.70;99.90;;;;;;6248950;22;20015;-80
2023/06/19 11:28:52;;;;;;;10.85;8.15;;;21.60;99.90;;;;;;6248208;22;20016;-80
2023/06/19 11:31:25;;;;;;;11.10;7.57;;;21.60;99.90;;;;;;6274807;22;20023;-80
2023/06/19 11:34:01;;;;;;;10.07;7.78;;;21.60;99.90;;;;;;6248936;22;20130;-80
2023/06/19 11:36:27;;;;;;;11.45;8.07;;;21.60;99.90;;;;;;6249808;22;20023;-80
2023/06/19 11:38:53;;;;;;;10.75;7.70;;;21.50;99.90;;;;;;6300166;22;20033;-80
2023/06/19 11:41:28;;;;;;;9.70;7.05;;;21.60;99.90;;;;;;6249825;22;20019;-80
2023/06/19 11:44:05;;;;;;;9.73;6.82;;;21.80;99.90;;;;;;6249010;22;20015;-80
2023/06/19 11:46:32;;;;;;;12.23;8.13;;;22.00;99.90;;;;;;6247150;22;20023;-80
2023/06/19 11:49:13;;;;;;;11.30;8.30;;;22.10;99.90;;;;;;6249757;22;20377;-80
2023/06/19 11:51:39;;;;;;;11.35;8.30;;;22.10;99.90;;;;;;6275151;22;20011;-80
2023/06/19 11:54:08;;;;;;;12.18;8.40;;;22.00;99.90;;;;;;6247703;22;20396;-80
2023/06/19 11:56:39;;;;;;;12.38;9.20;;;22.00;99.90;;;;;;6249643;22;20004;-80
2023/06/19 11:59:05;;;;;;;11.57;7.97;;;21.90;99.90;;;;;;6273719;22;20312;-80
2023/06/19 12:01:32;;;;;;;12.93;8.32;;;22.00;99.90;;;;;;6248112;22;20023;-80
2023/06/19 12:03:58;;;;;;;11.55;8.27;;;22.10;99.90;;;;;;6248774;22;20338;-80
2023/06/19 12:06:24;;;;;;;13.35;8.90;;;22.20;99.90;;;;;;6249383;22;20016;-80
2023/06/19 12:08:50;;;;;;;12.50;8.95;;;22.20;99.90;;;;;;6300840;22;20026;-80
2023/06/19 12:11:15;;;;;;;12.38;9.23;;;22.30;99.90;;;;;;6300923;22;20023;-80
2023/06/19 12:13:41;;;;;;;12.35;8.57;;;22.40;99.90;;;;;;6300841;22;20083;-80
2023/06/19 12:16:11;;;;;;;12.63;8.77;;;22.40;99.90;;;;;;6325197;22;20023;-77
2023/06/19 12:18:37;;;;;;;11.05;8.07;;;22.50;99.90;;;;;;6273878;22;20012;-74
2023/06/19 12:21:03;;;;;;;13.32;8.13;;;22.30;99.90;;;;;;6327319;22;20011;-77
2023/06/19 12:23:29;;;;;;;12.85;8.43;;;22.20;99.90;;;;;;6325859;22;20461;-76
2023/06/19 12:25:55;;;;;;;30.02;9.95;;;22.30;99.90;;;;;;6324761;22;20019;-76
2023/06/19 12:28:21;;;;;;;15.10;8.73;;;22.20;99.90;;;;;;6249134;22;20018;-77
2023/06/19 12:30:48;;;;;;;17.20;9.05;;;22.30;99.90;;;;;;6247453;22;20051;-76
2023/06/19 12:33:13;;;;;;;11.57;8.02;;;22.20;99.90;;;;;;6248722;22;20077;-77
2023/06/19 12:35:41;;;;;;;12.90;9.27;;;22.10;99.90;;;;;;6299698;22;20453;-75
2023/06/19 12:38:07;;;;;;;9.95;7.85;;;22.20;99.90;;;;;;6250045;22;20107;-72
2023/06/19 12:40:33;;;;;;;12.23;9.40;;;22.20;99.90;;;;;;6303627;22;20067;-75